sensor_id;sensor_type;location;lat;lon;timestamp;pressure;altitude;pressure_sealevel;temperature;humidity
74675;BME280;63200;48.810;12.352;2024-01-30T00:00:16;99018.34;;;-2.53;100.00
74675;BME280;63200;48.810;12.352;2024-01-30T00:02:41;99010.84;;;-2.57;100.00
74675;BME280;63200;48.810;12.352;2024-01-30T00:05:08;98993.69;;;-2.71;100.00
74675;BME280;63200;48.810;12.352;2024-01-30T00:07:33;99014.00;;;-2.62;100.00
74675;BME280;63200;48.810;12.352;2024-01-30T00:09:59;99013.31;;;-2.64;100.00
74675;BME280;63200;48.810;12.352;2024-01-30T00:12:24;99019.63;;;-2.65;100.00
74675;BME280;63200;48.810;12.352;2024-01-30T00:14:49;99015.28;;;-2.66;100.00
74675;BME280;63200;48.810;12.352;2024-01-30T00:17:14;99020.28;;;-2.71;100.00
74675;BME280;63200;48.810;12.352;2024-01-30T00:19:40;99014.75;;;-2.78;100.00
74675;BME280;63200;48.810;12.352;2024-01-30T00:22:05;98999.28;;;-2.91;100.00
74675;BME280;63200;48.810;12.352;2024-01-30T00:24:30;99003.19;;;-3.03;100.00
74675;BME280;63200;48.810;12.352;2024-01-30T00:26:56;99006.34;;;-3.08;100.00
74675;BME280;63200;48.810;12.352;2024-01-30T00:29:21;99017.28;;;-3.11;100.00
74675;BME280;63200;48.810;12.352;2024-01-30T00:31:48;99020.09;;;-3.12;100.00
74675;BME280;63200;48.810;12.352;2024-01-30T00:34:13;99004.31;;;-3.14;100.00
74675;BME280;63200;48.810;12.352;2024-01-30T00:36:38;99007.66;;;-3.12;100.00
74675;BME280;63200;48.810;12.352;2024-01-30T00:39:04;99015.09;;;-3.15;100.00
74675;BME280;63200;48.810;12.352;2024-01-30T00:41:34;98930.69;;;-3.64;100.00
74675;BME280;63200;48.810;12.352;2024-01-30T00:43:59;98985.75;;;-3.40;100.00
74675;BME280;63200;48.810;12.352;2024-01-30T00:46:25;99018.38;;;-3.22;100.00
74675;BME280;63200;48.810;12.352;2024-01-30T00:48:50;99009.91;;;-3.25;100.00
74675;BME280;63200;48.810;12.352;2024-01-30T00:51:15;99006.03;;;-3.31;100.00
74675;BME280;63200;48.810;12.352;2024-01-30T00:53:41;99005.69;;;-3.36;100.00
74675;BME280;63200;48.810;12.352;2024-01-30T00:56:07;99010.78;;;-3.43;100.00
74675;BME280;63200;48.810;12.352;2024-01-30T00:58:32;99011.81;;;-3.44;100.00
74675;BME280;63200;48.810;12.352;2024-01-30T01:00:58;99009.28;;;-3.45;100.00
74675;BME280;63200;48.810;12.352;2024-01-30T01:03:23;99004.81;;;-3.45;100.00
74675;BME280;63200;48.810;12.352;2024-01-30T01:05:48;99000.50;;;-3.46;100.00
74675;BME280;63200;48.810;12.352;2024-01-30T01:08:14;98998.00;;;-3.47;100.00
74675;BME280;63200;48.810;12.352;2024-01-30T01:10:40;98997.84;;;-3.46;100.00
74675;BME280;63200;48.810;12.352;2024-01-30T01:13:05;98997.66;;;-3.44;100.00
74675;BME280;63200;48.810;12.352;2024-01-30T01:15:30;98989.88;;;-3.46;100.00
74675;BME280;63200;48.810;12.352;2024-01-30T01:17:56;98996.00;;;-3.45;100.00
74675;BME280;63200;48.810;12.352;2024-01-30T01:20:21;98976.84;;;-3.57;100.00
74675;BME280;63200;48.810;12.352;2024-01-30T01:22:46;98984.34;;;-3.53;100.00
74675;BME280;63200;48.810;12.352;2024-01-30T01:25:12;98998.53;;;-3.44;100.00
74675;BME280;63200;48.810;12.352;2024-01-30T01:27:37;98995.69;;;-3.42;100.00
74675;BME280;63200;48.810;12.352;2024-01-30T01:30:10;98948.09;;;-3.70;100.00
74675;BME280;63200;48.810;12.352;2024-01-30T01:32:36;99004.31;;;-3.40;100.00
74675;BME280;63200;48.810;12.352;2024-01-30T01:35:03;98994.03;;;-3.43;100.00
74675;BME280;63200;48.810;12.352;2024-01-30T01:37:30;99002.31;;;-3.46;100.00
74675;BME280;63200;48.810;12.352;2024-01-30T01:39:56;98995.66;;;-3.50;100.00
74675;BME280;63200;48.810;12.352;2024-01-30T01:42:21;98923.66;;;-4.00;100.00
74675;BME280;63200;48.810;12.352;2024-01-30T01:44:47;98936.75;;;-3.98;100.00
74675;BME280;63200;48.810;12.352;2024-01-30T01:47:13;98990.75;;;-3.63;100.00
74675;BME280;63200;48.810;12.352;2024-01-30T01:49:39;98993.88;;;-3.68;100.00
74675;BME280;63200;48.810;12.352;2024-01-30T01:52:05;98988.88;;;-3.71;100.00
74675;BME280;63200;48.810;12.352;2024-01-30T01:54:30;98992.84;;;-3.75;100.00
74675;BME280;63200;48.810;12.352;2024-01-30T01:56:56;98940.06;;;-4.05;100.00
74675;BME280;63200;48.810;12.352;2024-01-30T01:59:22;98993.38;;;-3.72;100.00
74675;BME280;63200;48.810;12.352;2024-01-30T02:01:48;98989.69;;;-3.71;100.00
74675;BME280;63200;48.810;12.352;2024-01-30T02:04:14;98987.03;;;-3.71;100.00
74675;BME280;63200;48.810;12.352;2024-01-30T02:06:40;98986.91;;;-3.69;100.00
74675;BME280;63200;48.810;12.352;2024-01-30T02:09:05;98974.91;;;-3.73;100.00
74675;BME280;63200;48.810;12.352;2024-01-30T02:11:31;98949.25;;;-3.91;100.00
74675;BME280;63200;48.810;12.352;2024-01-30T02:13:57;98976.75;;;-3.74;100.00
74675;BME280;63200;48.810;12.352;2024-01-30T02:16:22;98975.41;;;-3.78;100.00
74675;BME280;63200;48.810;12.352;2024-01-30T02:18:47;98938.16;;;-4.12;100.00
74675;BME280;63200;48.810;12.352;2024-01-30T02:21:16;98962.91;;;-4.04;100.00
74675;BME280;63200;48.810;12.352;2024-01-30T02:23:43;98975.59;;;-3.97;100.00
74675;BME280;63200;48.810;12.352;2024-01-30T02:26:09;98979.53;;;-4.02;100.00
74675;BME280;63200;48.810;12.352;2024-01-30T02:28:34;98979.97;;;-4.06;100.00
74675;BME280;63200;48.810;12.352;2024-01-30T02:31:00;98973.03;;;-4.07;100.00
74675;BME280;63200;48.810;12.352;2024-01-30T02:33:25;98975.69;;;-4.07;100.00
74675;BME280;63200;48.810;12.352;2024-01-30T02:35:50;98979.97;;;-4.06;100.00
74675;BME280;63200;48.810;12.352;2024-01-30T02:38:16;98975.22;;;-4.03;100.00
74675;BME280;63200;48.810;12.352;2024-01-30T02:40:41;98964.91;;;-4.06;100.00
74675;BME280;63200;48.810;12.352;2024-01-30T02:43:07;98981.00;;;-4.07;100.00
74675;BME280;63200;48.810;12.352;2024-01-30T02:45:32;98977.47;;;-4.08;100.00
74675;BME280;63200;48.810;12.352;2024-01-30T02:47:57;98979.97;;;-4.06;100.00
74675;BME280;63200;48.810;12.352;2024-01-30T02:50:23;98977.84;;;-4.03;100.00
74675;BME280;63200;48.810;12.352;2024-01-30T02:52:48;98981.88;;;-3.98;100.00
74675;BME280;63200;48.810;12.352;2024-01-30T02:55:13;98986.03;;;-3.96;100.00
74675;BME280;63200;48.810;12.352;2024-01-30T02:57:39;98927.25;;;-4.27;100.00
74675;BME280;63200;48.810;12.352;2024-01-30T03:00:05;98935.59;;;-4.22;100.00
74675;BME280;63200;48.810;12.352;2024-01-30T03:02:32;98982.72;;;-3.98;100.00
74675;BME280;63200;48.810;12.352;2024-01-30T03:04:57;98982.03;;;-4.00;100.00
74675;BME280;63200;48.810;12.352;2024-01-30T03:07:23;98977.03;;;-4.03;100.00
74675;BME280;63200;48.810;12.352;2024-01-30T03:09:48;98971.81;;;-4.13;100.00
74675;BME280;63200;48.810;12.352;2024-01-30T03:12:13;98976.81;;;-4.10;100.00
74675;BME280;63200;48.810;12.352;2024-01-30T03:14:38;98978.56;;;-4.19;100.00
74675;BME280;63200;48.810;12.352;2024-01-30T03:17:04;98975.25;;;-4.21;100.00
74675;BME280;63200;48.810;12.352;2024-01-30T03:19:29;98972.88;;;-4.24;100.00
74675;BME280;63200;48.810;12.352;2024-01-30T03:21:54;98969.34;;;-4.32;100.00
74675;BME280;63200;48.810;12.352;2024-01-30T03:24:20;98972.44;;;-4.37;100.00
74675;BME280;63200;48.810;12.352;2024-01-30T03:26:45;98964.41;;;-4.45;100.00
74675;BME280;63200;48.810;12.352;2024-01-30T03:29:11;98967.81;;;-4.35;100.00
74675;BME280;63200;48.810;12.352;2024-01-30T03:31:36;98973.50;;;-4.30;100.00
74675;BME280;63200;48.810;12.352;2024-01-30T03:34:01;98905.69;;;-4.69;100.00
74675;BME280;63200;48.810;12.352;2024-01-30T03:36:27;98906.00;;;-4.72;100.00
74675;BME280;63200;48.810;12.352;2024-01-30T03:38:52;98925.56;;;-4.55;100.00
74675;BME280;63200;48.810;12.352;2024-01-30T03:41:18;98969.94;;;-4.21;100.00
74675;BME280;63200;48.810;12.352;2024-01-30T03:43:43;98979.63;;;-4.11;100.00
74675;BME280;63200;48.810;12.352;2024-01-30T03:46:08;98980.78;;;-4.14;100.00
74675;BME280;63200;48.810;12.352;2024-01-30T03:48:34;98979.09;;;-4.15;100.00
74675;BME280;63200;48.810;12.352;2024-01-30T03:50:59;98976.44;;;-4.15;100.00
74675;BME280;63200;48.810;12.352;2024-01-30T03:53:24;98980.91;;;-4.15;100.00
74675;BME280;63200;48.810;12.352;2024-01-30T03:55:49;98981.22;;;-4.19;100.00
74675;BME280;63200;48.810;12.352;2024-01-30T03:58:15;98937.34;;;-4.49;100.00
74675;BME280;63200;48.810;12.352;2024-01-30T04:00:40;98979.03;;;-4.23;100.00
74675;BME280;63200;48.810;12.352;2024-01-30T04:03:06;98981.38;;;-4.38;100.00
74675;BME280;63200;48.810;12.352;2024-01-30T04:05:31;98984.75;;;-4.46;100.00
74675;BME280;63200;48.810;12.352;2024-01-30T04:07:56;98989.09;;;-4.45;100.00
74675;BME280;63200;48.810;12.352;2024-01-30T04:10:22;98985.78;;;-4.47;100.00
74675;BME280;63200;48.810;12.352;2024-01-30T04:12:48;98986.91;;;-4.49;100.00
74675;BME280;63200;48.810;12.352;2024-01-30T04:15:13;98987.88;;;-4.50;100.00
74675;BME280;63200;48.810;12.352;2024-01-30T04:17:39;98989.72;;;-4.51;100.00
74675;BME280;63200;48.810;12.352;2024-01-30T04:20:05;98982.88;;;-4.54;100.00
74675;BME280;63200;48.810;12.352;2024-01-30T04:22:31;98991.13;;;-4.57;100.00
74675;BME280;63200;48.810;12.352;2024-01-30T04:24:56;98979.00;;;-4.59;100.00
74675;BME280;63200;48.810;12.352;2024-01-30T04:27:21;98983.16;;;-4.57;100.00
74675;BME280;63200;48.810;12.352;2024-01-30T04:29:47;98973.69;;;-4.59;100.00
74675;BME280;63200;48.810;12.352;2024-01-30T04:32:12;98975.53;;;-4.60;100.00
74675;BME280;63200;48.810;12.352;2024-01-30T04:34:37;98987.97;;;-4.60;100.00
74675;BME280;63200;48.810;12.352;2024-01-30T04:37:03;98984.31;;;-4.59;100.00
74675;BME280;63200;48.810;12.352;2024-01-30T04:39:28;98983.16;;;-4.57;100.00
74675;BME280;63200;48.810;12.352;2024-01-30T04:41:53;98955.91;;;-4.67;100.00
74675;BME280;63200;48.810;12.352;2024-01-30T04:44:19;98976.72;;;-4.54;100.00
74675;BME280;63200;48.810;12.352;2024-01-30T04:46:44;98982.72;;;-4.52;100.00
74675;BME280;63200;48.810;12.352;2024-01-30T04:49:10;98980.91;;;-4.52;100.00
74675;BME280;63200;48.810;12.352;2024-01-30T04:51:35;98982.88;;;-4.54;100.00
74675;BME280;63200;48.810;12.352;2024-01-30T04:54:00;98981.38;;;-4.56;100.00
74675;BME280;63200;48.810;12.352;2024-01-30T04:56:25;98982.34;;;-4.57;100.00
74675;BME280;63200;48.810;12.352;2024-01-30T04:58:51;98987.50;;;-4.56;100.00
74675;BME280;63200;48.810;12.352;2024-01-30T05:01:16;98987.06;;;-4.51;100.00
74675;BME280;63200;48.810;12.352;2024-01-30T05:03:42;98995.84;;;-4.50;100.00
74675;BME280;63200;48.810;12.352;2024-01-30T05:06:07;98994.00;;;-4.50;100.00
74675;BME280;63200;48.810;12.352;2024-01-30T05:08:32;98926.75;;;-4.85;100.00
74675;BME280;63200;48.810;12.352;2024-01-30T05:11:00;98990.75;;;-4.44;100.00
74675;BME280;63200;48.810;12.352;2024-01-30T05:13:26;98989.47;;;-4.40;100.00
74675;BME280;63200;48.810;12.352;2024-01-30T05:15:52;98985.31;;;-4.42;100.00
74675;BME280;63200;48.810;12.352;2024-01-30T05:18:17;98995.25;;;-4.44;100.00
74675;BME280;63200;48.810;12.352;2024-01-30T05:20:42;98999.03;;;-4.47;100.00
74675;BME280;63200;48.810;12.352;2024-01-30T05:23:08;99004.09;;;-4.54;100.00
74675;BME280;63200;48.810;12.352;2024-01-30T05:25:33;98997.28;;;-4.56;100.00
74675;BME280;63200;48.810;12.352;2024-01-30T05:27:58;99000.44;;;-4.53;100.00
74675;BME280;63200;48.810;12.352;2024-01-30T05:30:24;98997.28;;;-4.56;100.00
74675;BME280;63200;48.810;12.352;2024-01-30T05:32:49;98998.69;;;-4.62;100.00
74675;BME280;63200;48.810;12.352;2024-01-30T05:35:14;98993.31;;;-4.70;100.00
74675;BME280;63200;48.810;12.352;2024-01-30T05:37:40;98988.34;;;-4.83;100.00
74675;BME280;63200;48.810;12.352;2024-01-30T05:40:06;98971.59;;;-5.02;100.00
74675;BME280;63200;48.810;12.352;2024-01-30T05:42:31;98993.56;;;-4.91;100.00
74675;BME280;63200;48.810;12.352;2024-01-30T05:44:56;98999.00;;;-4.93;100.00
74675;BME280;63200;48.810;12.352;2024-01-30T05:47:22;99003.19;;;-4.90;100.00
74675;BME280;63200;48.810;12.352;2024-01-30T05:49:47;99002.72;;;-4.86;100.00
74675;BME280;63200;48.810;12.352;2024-01-30T05:52:13;98963.25;;;-5.07;100.00
74675;BME280;63200;48.810;12.352;2024-01-30T05:54:38;99006.91;;;-4.83;100.00
74675;BME280;63200;48.810;12.352;2024-01-30T05:57:03;98961.19;;;-5.13;100.00
74675;BME280;63200;48.810;12.352;2024-01-30T05:59:29;99005.38;;;-4.86;100.00
74675;BME280;63200;48.810;12.352;2024-01-30T06:01:54;99012.06;;;-4.81;100.00
74675;BME280;63200;48.810;12.352;2024-01-30T06:04:19;99009.44;;;-4.81;100.00
74675;BME280;63200;48.810;12.352;2024-01-30T06:06:44;99010.81;;;-4.87;100.00
74675;BME280;63200;48.810;12.352;2024-01-30T06:09:10;99002.09;;;-4.97;100.00
74675;BME280;63200;48.810;12.352;2024-01-30T06:11:35;99004.88;;;-4.99;100.00
74675;BME280;63200;48.810;12.352;2024-01-30T06:14:00;98986.56;;;-5.10;100.00
74675;BME280;63200;48.810;12.352;2024-01-30T06:16:26;99008.81;;;-5.03;100.00
74675;BME280;63200;48.810;12.352;2024-01-30T06:18:55;99001.56;;;-5.01;100.00
74675;BME280;63200;48.810;12.352;2024-01-30T06:21:20;99005.28;;;-4.94;100.00
74675;BME280;63200;48.810;12.352;2024-01-30T06:23:45;99015.78;;;-4.74;100.00
74675;BME280;63200;48.810;12.352;2024-01-30T06:26:11;99010.88;;;-4.69;100.00
74675;BME280;63200;48.810;12.352;2024-01-30T06:28:36;99013.84;;;-4.72;100.00
74675;BME280;63200;48.810;12.352;2024-01-30T06:31:01;99013.53;;;-4.69;100.00
74675;BME280;63200;48.810;12.352;2024-01-30T06:33:26;99014.19;;;-4.67;100.00
74675;BME280;63200;48.810;12.352;2024-01-30T06:35:52;99013.91;;;-4.64;100.00
74675;BME280;63200;48.810;12.352;2024-01-30T06:38:17;99020.03;;;-4.63;100.00
74675;BME280;63200;48.810;12.352;2024-01-30T06:40:42;99023.53;;;-4.63;100.00
74675;BME280;63200;48.810;12.352;2024-01-30T06:43:08;98974.63;;;-4.96;100.00
74675;BME280;63200;48.810;12.352;2024-01-30T06:45:33;99036.91;;;-4.64;100.00
74675;BME280;63200;48.810;12.352;2024-01-30T06:48:00;98963.13;;;-5.05;100.00
74675;BME280;63200;48.810;12.352;2024-01-30T06:50:25;99026.31;;;-4.64;100.00
74675;BME280;63200;48.810;12.352;2024-01-30T06:52:51;99029.81;;;-4.64;100.00
74675;BME280;63200;48.810;12.352;2024-01-30T06:55:16;99029.81;;;-4.64;100.00
74675;BME280;63200;48.810;12.352;2024-01-30T06:57:41;99031.19;;;-4.60;100.00
74675;BME280;63200;48.810;12.352;2024-01-30T07:00:07;98971.56;;;-4.92;100.00
74675;BME280;63200;48.810;12.352;2024-01-30T07:02:32;98986.22;;;-4.70;100.00
74675;BME280;63200;48.810;12.352;2024-01-30T07:04:58;99026.59;;;-4.22;100.00
74675;BME280;63200;48.810;12.352;2024-01-30T07:07:23;99028.00;;;-3.73;100.00
74675;BME280;63200;48.810;12.352;2024-01-30T07:09:48;99031.97;;;-3.25;100.00
74675;BME280;63200;48.810;12.352;2024-01-30T07:12:17;99010.22;;;-3.28;100.00
74675;BME280;63200;48.810;12.352;2024-01-30T07:14:42;99038.63;;;-2.94;100.00
74675;BME280;63200;48.810;12.352;2024-01-30T07:17:08;99032.19;;;-2.24;100.00
74675;BME280;63200;48.810;12.352;2024-01-30T07:19:33;99028.38;;;-1.39;100.00
74675;BME280;63200;48.810;12.352;2024-01-30T07:21:59;99000.84;;;-1.23;100.00
74675;BME280;63200;48.810;12.352;2024-01-30T07:24:24;99035.56;;;-0.84;100.00
74675;BME280;63200;48.810;12.352;2024-01-30T07:26:50;99040.19;;;-0.06;100.00
74675;BME280;63200;48.810;12.352;2024-01-30T07:29:15;99034.94;;;0.24;88.98
74675;BME280;63200;48.810;12.352;2024-01-30T07:31:40;99019.84;;;0.84;84.92
74675;BME280;63200;48.810;12.352;2024-01-30T07:34:06;99041.16;;;1.37;79.36
74675;BME280;63200;48.810;12.352;2024-01-30T07:36:31;99029.22;;;1.91;75.45
74675;BME280;63200;48.810;12.352;2024-01-30T07:38:56;99045.75;;;2.16;72.39
74675;BME280;63200;48.810;12.352;2024-01-30T07:41:22;99051.22;;;2.52;71.33
74675;BME280;63200;48.810;12.352;2024-01-30T07:43:48;99052.38;;;2.42;69.22
74675;BME280;63200;48.810;12.352;2024-01-30T07:46:13;99050.03;;;2.82;68.75
74675;BME280;63200;48.810;12.352;2024-01-30T07:48:38;99055.66;;;3.29;66.81
74675;BME280;63200;48.810;12.352;2024-01-30T07:51:03;99051.25;;;3.57;66.15
74675;BME280;63200;48.810;12.352;2024-01-30T07:53:29;99046.81;;;3.36;64.69
74675;BME280;63200;48.810;12.352;2024-01-30T07:55:54;99054.25;;;3.33;64.85
74675;BME280;63200;48.810;12.352;2024-01-30T07:58:19;99043.09;;;3.78;64.69
74675;BME280;63200;48.810;12.352;2024-01-30T08:00:45;99018.94;;;3.92;63.16
74675;BME280;63200;48.810;12.352;2024-01-30T08:03:10;99055.41;;;3.59;63.56
74675;BME280;63200;48.810;12.352;2024-01-30T08:05:35;99044.31;;;3.76;64.06
74675;BME280;63200;48.810;12.352;2024-01-30T08:08:01;99046.94;;;4.58;64.64
74675;BME280;63200;48.810;12.352;2024-01-30T08:10:26;99043.97;;;5.20;62.57
74675;BME280;63200;48.810;12.352;2024-01-30T08:12:51;99035.75;;;4.88;62.12
74675;BME280;63200;48.810;12.352;2024-01-30T08:15:17;99050.03;;;4.34;61.84
74675;BME280;63200;48.810;12.352;2024-01-30T08:17:42;99048.56;;;3.57;64.04
74675;BME280;63200;48.810;12.352;2024-01-30T08:20:07;99022.94;;;4.36;63.78
74675;BME280;63200;48.810;12.352;2024-01-30T08:22:33;99025.38;;;4.17;63.02
74675;BME280;63200;48.810;12.352;2024-01-30T08:24:58;99066.59;;;4.58;62.93
74675;BME280;63200;48.810;12.352;2024-01-30T08:27:24;99058.41;;;5.45;61.58
74675;BME280;63200;48.810;12.352;2024-01-30T08:29:49;99061.09;;;6.04;60.27
74675;BME280;63200;48.810;12.352;2024-01-30T08:32:15;99069.81;;;7.14;57.01
74675;BME280;63200;48.810;12.352;2024-01-30T08:34:41;99009.38;;;6.90;55.83
74675;BME280;63200;48.810;12.352;2024-01-30T08:37:06;99077.28;;;6.93;55.91
74675;BME280;63200;48.810;12.352;2024-01-30T08:39:31;99082.06;;;7.35;55.83
74675;BME280;63200;48.810;12.352;2024-01-30T08:41:57;99076.19;;;7.38;54.97
74675;BME280;63200;48.810;12.352;2024-01-30T08:44:23;99066.78;;;8.27;54.21
74675;BME280;63200;48.810;12.352;2024-01-30T08:46:48;99062.94;;;8.77;49.84
74675;BME280;63200;48.810;12.352;2024-01-30T08:49:16;99064.34;;;8.79;50.94
74675;BME280;63200;48.810;12.352;2024-01-30T08:51:41;99073.50;;;8.55;50.95
74675;BME280;63200;48.810;12.352;2024-01-30T08:54:06;99058.94;;;8.91;51.75
74675;BME280;63200;48.810;12.352;2024-01-30T08:56:32;99057.88;;;8.69;50.71
74675;BME280;63200;48.810;12.352;2024-01-30T08:58:57;99058.00;;;9.09;51.55
74675;BME280;63200;48.810;12.352;2024-01-30T09:01:23;99055.50;;;9.55;51.46
74675;BME280;63200;48.810;12.352;2024-01-30T09:03:48;99056.00;;;9.05;50.96
74675;BME280;63200;48.810;12.352;2024-01-30T09:06:13;99061.97;;;8.59;51.62
74675;BME280;63200;48.810;12.352;2024-01-30T09:08:39;99046.94;;;8.45;52.51
74675;BME280;63200;48.810;12.352;2024-01-30T09:11:14;99059.84;;;7.89;52.25
74675;BME280;63200;48.810;12.352;2024-01-30T09:13:40;99054.22;;;7.72;53.95
74675;BME280;63200;48.810;12.352;2024-01-30T09:16:06;99059.16;;;7.56;54.96
74675;BME280;63200;48.810;12.352;2024-01-30T09:18:32;99062.72;;;7.75;55.42
74675;BME280;63200;48.810;12.352;2024-01-30T09:20:57;99055.94;;;8.15;55.67
74675;BME280;63200;48.810;12.352;2024-01-30T09:23:23;99069.03;;;7.99;55.29
74675;BME280;63200;48.810;12.352;2024-01-30T09:25:48;99066.88;;;7.71;55.39
74675;BME280;63200;48.810;12.352;2024-01-30T09:28:14;99063.97;;;7.73;55.56
74675;BME280;63200;48.810;12.352;2024-01-30T09:30:39;99065.25;;;7.89;56.40
74675;BME280;63200;48.810;12.352;2024-01-30T09:33:06;99067.84;;;8.26;56.09
74675;BME280;63200;48.810;12.352;2024-01-30T09:35:31;99068.34;;;8.34;56.09
74675;BME280;63200;48.810;12.352;2024-01-30T09:37:57;99073.84;;;7.97;56.53
74675;BME280;63200;48.810;12.352;2024-01-30T09:40:22;99067.88;;;8.68;55.83
74675;BME280;63200;48.810;12.352;2024-01-30T09:42:50;99072.13;;;9.23;54.81
74675;BME280;63200;48.810;12.352;2024-01-30T09:45:17;99071.41;;;8.80;54.78
74675;BME280;63200;48.810;12.352;2024-01-30T09:47:44;99065.66;;;9.12;54.55
74675;BME280;63200;48.810;12.352;2024-01-30T09:50:10;99070.56;;;8.56;54.73
74675;BME280;63200;48.810;12.352;2024-01-30T09:52:36;99066.47;;;8.35;56.14
74675;BME280;63200;48.810;12.352;2024-01-30T09:55:02;99061.31;;;8.03;56.60
74675;BME280;63200;48.810;12.352;2024-01-30T09:57:28;99068.94;;;8.06;57.34
74675;BME280;63200;48.810;12.352;2024-01-30T09:59:53;99052.16;;;8.16;58.37
74675;BME280;63200;48.810;12.352;2024-01-30T10:02:22;99058.50;;;8.40;56.33
74675;BME280;63200;48.810;12.352;2024-01-30T10:04:51;99058.13;;;8.37;56.86
74675;BME280;63200;48.810;12.352;2024-01-30T10:07:20;99051.13;;;7.68;57.59
74675;BME280;63200;48.810;12.352;2024-01-30T10:09:46;99054.97;;;7.23;59.91
74675;BME280;63200;48.810;12.352;2024-01-30T10:12:11;99043.31;;;7.04;60.65
74675;BME280;63200;48.810;12.352;2024-01-30T10:14:40;99049.91;;;7.08;60.97
74675;BME280;63200;48.810;12.352;2024-01-30T10:17:10;99047.41;;;6.63;61.31
74675;BME280;63200;48.810;12.352;2024-01-30T10:19:39;99046.84;;;6.79;62.70
74675;BME280;63200;48.810;12.352;2024-01-30T10:22:04;99039.22;;;6.76;63.57
74675;BME280;63200;48.810;12.352;2024-01-30T10:24:30;99040.47;;;6.99;63.19
74675;BME280;63200;48.810;12.352;2024-01-30T10:26:56;99042.84;;;7.07;62.29
74675;BME280;63200;48.810;12.352;2024-01-30T10:29:21;99021.63;;;6.92;62.53
74675;BME280;63200;48.810;12.352;2024-01-30T10:31:58;99032.69;;;7.28;63.41
74675;BME280;63200;48.810;12.352;2024-01-30T10:34:23;99033.81;;;7.20;62.11
74675;BME280;63200;48.810;12.352;2024-01-30T10:36:50;99030.50;;;7.37;62.67
74675;BME280;63200;48.810;12.352;2024-01-30T10:39:17;99024.34;;;7.97;61.62
74675;BME280;63200;48.810;12.352;2024-01-30T10:41:43;99031.00;;;8.55;59.29
74675;BME280;63200;48.810;12.352;2024-01-30T10:44:10;99019.50;;;8.95;58.16
74675;BME280;63200;48.810;12.352;2024-01-30T10:46:38;99015.97;;;9.07;56.76
74675;BME280;63200;48.810;12.352;2024-01-30T10:49:05;99011.25;;;9.02;58.14
74675;BME280;63200;48.810;12.352;2024-01-30T10:51:32;99014.94;;;8.30;57.32
74675;BME280;63200;48.810;12.352;2024-01-30T10:53:58;99000.13;;;8.44;58.66
74675;BME280;63200;48.810;12.352;2024-01-30T10:56:24;99007.72;;;8.66;57.68
74675;BME280;63200;48.810;12.352;2024-01-30T10:58:50;98999.47;;;8.18;58.81
74675;BME280;63200;48.810;12.352;2024-01-30T11:01:23;99005.59;;;8.14;59.95
74675;BME280;63200;48.810;12.352;2024-01-30T11:03:53;98985.41;;;7.86;59.17
74675;BME280;63200;48.810;12.352;2024-01-30T11:06:22;98996.25;;;7.67;60.94
74675;BME280;63200;48.810;12.352;2024-01-30T11:09:00;98992.53;;;7.80;61.86
74675;BME280;63200;48.810;12.352;2024-01-30T11:11:25;98992.38;;;7.94;61.34
74675;BME280;63200;48.810;12.352;2024-01-30T11:13:51;98990.97;;;8.03;61.31
74675;BME280;63200;48.810;12.352;2024-01-30T11:16:16;98978.28;;;8.46;60.67
74675;BME280;63200;48.810;12.352;2024-01-30T11:18:42;99000.41;;;8.66;58.18
74675;BME280;63200;48.810;12.352;2024-01-30T11:21:07;98978.94;;;7.99;59.92
74675;BME280;63200;48.810;12.352;2024-01-30T11:23:33;98991.03;;;7.84;60.02
74675;BME280;63200;48.810;12.352;2024-01-30T11:25:59;98933.00;;;6.64;62.69
74675;BME280;63200;48.810;12.352;2024-01-30T11:28:32;98985.41;;;6.56;65.26
74675;BME280;63200;48.810;12.352;2024-01-30T11:31:07;98946.69;;;6.19;67.09
74675;BME280;63200;48.810;12.352;2024-01-30T11:33:33;98951.97;;;6.32;69.40
74675;BME280;63200;48.810;12.352;2024-01-30T11:36:00;98945.09;;;6.11;67.90
74675;BME280;63200;48.810;12.352;2024-01-30T11:38:26;98929.56;;;5.74;69.61
74675;BME280;63200;48.810;12.352;2024-01-30T11:40:55;98972.34;;;5.96;70.40
74675;BME280;63200;48.810;12.352;2024-01-30T11:43:23;98965.97;;;5.90;70.04
74675;BME280;63200;48.810;12.352;2024-01-30T11:45:49;98977.97;;;5.94;71.40
74675;BME280;63200;48.810;12.352;2024-01-30T11:48:14;98969.63;;;5.64;75.70
74675;BME280;63200;48.810;12.352;2024-01-30T11:50:40;98969.25;;;5.54;78.89
74675;BME280;63200;48.810;12.352;2024-01-30T11:53:06;98965.91;;;5.65;76.48
74675;BME280;63200;48.810;12.352;2024-01-30T11:55:32;98965.22;;;5.31;79.89
74675;BME280;63200;48.810;12.352;2024-01-30T11:57:58;98970.44;;;5.19;83.25
74675;BME280;63200;48.810;12.352;2024-01-30T12:00:24;98927.28;;;4.87;84.17
74675;BME280;63200;48.810;12.352;2024-01-30T12:02:51;98962.19;;;5.07;84.88
74675;BME280;63200;48.810;12.352;2024-01-30T12:05:20;98957.84;;;5.06;86.75
74675;BME280;63200;48.810;12.352;2024-01-30T12:07:46;98933.25;;;4.96;86.97
74675;BME280;63200;48.810;12.352;2024-01-30T12:10:12;98951.56;;;5.26;85.33
74675;BME280;63200;48.810;12.352;2024-01-30T12:12:39;98893.19;;;5.20;81.16
74675;BME280;63200;48.810;12.352;2024-01-30T12:15:06;98940.59;;;5.66;81.26
74675;BME280;63200;48.810;12.352;2024-01-30T12:17:33;98946.53;;;6.13;77.67
74675;BME280;63200;48.810;12.352;2024-01-30T12:20:10;98943.22;;;6.11;74.64
74675;BME280;63200;48.810;12.352;2024-01-30T12:22:43;98940.38;;;6.06;75.97
74675;BME280;63200;48.810;12.352;2024-01-30T12:25:13;98942.28;;;5.92;77.12
74675;BME280;63200;48.810;12.352;2024-01-30T12:27:40;98945.22;;;5.91;77.56
74675;BME280;63200;48.810;12.352;2024-01-30T12:30:11;98912.00;;;5.97;77.20
74675;BME280;63200;48.810;12.352;2024-01-30T12:32:40;98941.41;;;6.30;74.18
74675;BME280;63200;48.810;12.352;2024-01-30T12:35:13;98937.03;;;6.55;74.12
74675;BME280;63200;48.810;12.352;2024-01-30T12:37:39;98936.53;;;6.64;72.36
74675;BME280;63200;48.810;12.352;2024-01-30T12:40:05;98939.41;;;6.70;70.73